Time;durP1;ratioP1;P1;durP2;ratioP2;P2;SDS_P1;SDS_P2;PMS_P1;PMS_P2;Temp;Humidity;BMP_temperature;BMP_pressure;BME280_temperature;BME280_humidity;BME280_pressure;Samples;Min_cycle;Max_cycle;Signal;HPM_P1;HPM_P2
2021/06/01 00:01:53;;;;;;;13.58;8.33;;;;;;;9.00;65.00;101025.20;1640539;82;25730;-73
2021/06/01 00:04:20;;;;;;;11.15;7.75;;;;;;;8.98;64.96;101027.22;1667963;82;25602;-73
2021/06/01 00:06:48;;;;;;;17.07;9.08;;;;;;;8.96;65.00;101025.73;1684754;82;27551;-73
2021/06/01 00:09:19;;;;;;;13.95;8.78;;;;;;;8.94;65.20;101021.87;1706245;82;25850;-73
2021/06/01 00:11:47;;;;;;;14.55;8.03;;;;;;;8.91;65.22;101021.38;1616587;82;25705;-73
2021/06/01 00:14:16;;;;;;;14.30;8.60;;;;;;;8.88;65.09;101022.54;1688877;82;25654;-74
2021/06/01 00:16:45;;;;;;;13.45;8.48;;;;;;;8.87;65.31;101019.55;1664927;83;25808;-74
2021/06/01 00:19:12;;;;;;;12.07;7.65;;;;;;;8.87;65.47;101017.38;1677172;84;27553;-73
2021/06/01 00:21:40;;;;;;;11.97;7.87;;;;;;;8.83;65.60;101017.38;1633726;83;25888;-74
2021/06/01 00:24:08;;;;;;;10.53;6.50;;;;;;;8.80;65.69;101013.19;1681105;83;25881;-74
2021/06/01 00:26:38;;;;;;;11.08;6.37;;;;;;;8.81;65.83;101014.84;1684269;82;25707;-73
2021/06/01 00:29:07;;;;;;;9.08;6.08;;;;;;;8.81;65.86;101011.36;1707055;82;25817;-74
2021/06/01 00:31:34;;;;;;;10.20;6.70;;;;;;;8.76;65.85;101009.18;1673035;83;28195;-74
2021/06/01 00:34:02;;;;;;;10.68;6.47;;;;;;;8.68;65.74;101014.52;1664460;83;25687;-74
2021/06/01 00:36:29;;;;;;;11.15;7.10;;;;;;;8.59;65.76;101011.48;1699225;81;25870;-73
2021/06/01 00:38:57;;;;;;;10.30;6.53;;;;;;;8.51;65.91;101014.15;1709876;83;26012;-74
2021/06/01 00:41:24;;;;;;;13.32;7.37;;;;;;;8.47;65.97;101014.11;1656914;83;25852;-73
2021/06/01 00:43:51;;;;;;;12.70;8.58;;;;;;;8.43;65.99;101010.94;1654794;84;28127;-73
2021/06/01 00:46:18;;;;;;;14.40;7.58;;;;;;;8.39;66.12;101009.59;1690674;83;26448;-73
2021/06/01 00:48:45;;;;;;;11.80;7.65;;;;;;;8.38;66.24;101016.44;1700693;83;25911;-73
2021/06/01 00:51:13;;;;;;;10.88;7.28;;;;;;;8.37;66.42;101016.09;1638430;83;25794;-73
2021/06/01 00:53:40;;;;;;;13.95;6.80;;;;;;;8.36;66.49;101014.44;1651129;83;25770;-73
2021/06/01 00:56:07;;;;;;;14.07;7.17;;;;;;;8.32;66.33;101016.58;1708881;82;27591;-74
2021/06/01 00:58:35;;;;;;;11.43;6.80;;;;;;;8.26;66.40;101020.39;1725785;81;25800;-74
2021/06/01 01:03:31;;;;;;;11.25;7.08;;;;;;;8.12;66.47;101016.98;1678767;81;25783;-73
2021/06/01 01:06:05;;;;;;;10.48;6.92;;;;;;;8.08;66.60;101016.47;1680528;83;25595;-73
2021/06/01 01:08:49;;;;;;;9.75;6.33;;;;;;;8.04;67.07;101012.95;1708242;83;27993;-74
2021/06/01 01:11:32;;;;;;;10.28;7.28;;;;;;;8.00;67.24;101019.08;1698528;81;26032;-73
2021/06/01 01:14:07;;;;;;;9.23;6.58;;;;;;;7.92;67.40;101011.54;1721377;81;25619;-73
2021/06/01 01:16:36;;;;;;;11.97;6.67;;;;;;;7.91;67.66;101013.89;1682660;83;25773;-74
2021/06/01 01:19:15;;;;;;;9.13;6.72;;;;;;;7.89;67.85;101013.22;1706515;81;25765;-74
2021/06/01 01:21:55;;;;;;;14.68;8.98;;;;;;;7.90;68.08;101007.71;1665012;82;27939;-74
2021/06/01 01:24:45;;;;;;;16.12;9.00;;;;;;;7.95;68.66;101008.56;1658802;84;25733;-74
2021/06/01 01:28:10;;;;;;;18.57;9.68;;;;;;;8.02;69.09;101003.75;1683547;83;25567;-74
2021/06/01 01:30:47;;;;;;;11.93;6.53;;;;;;;8.10;69.29;101000.30;1682804;84;26439;-74
2021/06/01 01:33:26;;;;;;;9.83;6.40;;;;;;;8.02;68.98;101012.28;1676403;84;26528;-74
2021/06/01 01:36:03;;;;;;;10.55;7.10;;;;;;;7.92;69.16;101003.05;1633733;84;27691;-74
2021/06/01 01:38:32;;;;;;;12.13;6.62;;;;;;;7.93;69.38;101007.41;1661397;84;25625;-73
2021/06/01 01:41:03;;;;;;;13.58;7.85;;;;;;;7.97;69.43;101006.58;1715600;82;25613;-74
2021/06/01 01:43:33;;;;;;;16.10;7.90;;;;;;;8.03;69.90;101002.77;1693112;84;26761;-74
2021/06/01 01:46:13;;;;;;;13.10;7.53;;;;;;;8.10;70.15;101001.62;1640525;84;25716;-74
2021/06/01 01:51:37;;;;;;;11.10;7.28;;;;;;;8.17;70.13;100998.14;1687169;84;25870;-74
2021/06/01 01:54:13;;;;;;;15.23;8.13;;;;;;;8.16;70.39;100991.15;1694295;84;25707;-74
2021/06/01 01:56:45;;;;;;;14.38;7.80;;;;;;;8.18;70.37;100987.82;1692547;84;26072;-74
2021/06/01 01:59:18;;;;;;;11.35;7.85;;;;;;;8.21;70.64;100986.14;1687626;84;26503;-74
2021/06/01 02:01:49;;;;;;;12.35;8.08;;;;;;;8.25;70.87;100985.34;1687296;84;28185;-73
2021/06/01 02:04:22;;;;;;;;;;;;;;;8.29;70.96;100985.38;1640576;84;25771;-74
2021/06/01 02:06:49;;;;;;;10.30;6.62;;;;;;;8.30;71.18;100985.21;1696702;81;26030;-74
2021/06/01 02:09:16;;;;;;;9.08;7.12;;;;;;;8.31;71.29;100977.55;1673772;84;26330;-73
2021/06/01 02:11:43;;;;;;;12.28;8.13;;;;;;;8.37;71.18;100983.57;1666122;84;26557;-74
2021/06/01 02:14:11;;;;;;;13.90;7.42;;;;;;;8.40;71.43;100981.08;1664517;84;27688;-74
2021/06/01 02:16:42;;;;;;;10.90;6.85;;;;;;;8.43;71.43;100988.25;1672576;82;26264;-74
2021/06/01 02:19:11;;;;;;;;;;;;;;;8.44;71.43;100981.93;1661942;84;25784;-74
2021/06/01 02:22:00;;;;;;;9.10;6.72;;;;;;;8.46;71.50;100989.77;1660382;84;25704;-74
2021/06/01 02:24:35;;;;;;;15.75;9.25;;;;;;;8.44;71.65;100984.59;1675907;84;25906;-74
2021/06/01 02:27:26;;;;;;;12.28;7.65;;;;;;;8.47;71.53;100980.25;1654748;85;28029;-73
2021/06/01 02:30:10;;;;;;;9.20;7.00;;;;;;;8.47;71.58;100973.57;1725408;82;27515;-74
2021/06/01 02:32:45;;;;;;;11.53;7.50;;;;;;;8.51;71.82;100968.23;1700311;82;26278;-74
2021/06/01 02:35:17;;;;;;;10.65;7.62;;;;;;;8.53;72.00;100970.23;1705029;82;27586;-74
2021/06/01 02:37:48;;;;;;;13.35;8.60;;;;;;;8.57;72.01;100968.59;1700001;82;26309;-74
2021/06/01 02:40:19;;;;;;;11.95;7.97;;;;;;;8.61;72.09;100969.44;1716023;82;27662;-74
2021/06/01 02:42:47;;;;;;;13.83;9.05;;;;;;;8.66;72.28;100968.94;1670664;84;25782;-74
2021/06/01 02:45:20;;;;;;;14.00;8.38;;;;;;;8.70;72.50;100958.26;1676197;82;25736;-74
2021/06/01 02:47:48;;;;;;;10.48;8.23;;;;;;;8.75;72.73;100957.23;1698628;83;26510;-74
2021/06/01 02:50:16;;;;;;;10.78;7.72;;;;;;;8.80;72.76;100960.26;1693236;83;25775;-74
2021/06/01 02:52:44;;;;;;;12.10;7.87;;;;;;;8.83;72.87;100951.41;1628120;83;28071;-74
2021/06/01 02:55:16;;;;;;;11.10;7.80;;;;;;;8.89;73.05;100959.27;1674141;83;26416;-73
2021/06/01 02:57:43;;;;;;;16.20;10.35;;;;;;;8.93;73.10;100961.94;1682236;84;26357;-74
2021/06/01 03:00:15;;;;;;;15.03;8.43;;;;;;;8.97;72.89;100966.78;1698412;83;25782;-74
2021/06/01 03:02:43;;;;;;;14.78;8.80;;;;;;;9.05;72.97;100968.60;1685281;83;25709;-74
2021/06/01 03:05:10;;;;;;;12.33;8.13;;;;;;;9.10;73.41;100970.28;1676297;83;27074;-74
2021/06/01 03:07:39;;;;;;;17.12;8.80;;;;;;;9.12;73.22;100969.61;1696853;83;26411;-74
2021/06/01 03:10:12;;;;;;;14.83;8.65;;;;;;;9.15;73.15;100970.62;1706748;82;25745;-74
2021/06/01 03:12:57;;;;;;;13.48;8.33;;;;;;;9.19;73.39;100965.27;1676623;83;26480;-74
2021/06/01 03:15:21;;;;;;;14.35;8.90;;;;;;;9.23;73.50;100974.12;1668767;82;25816;-74
2021/06/01 03:17:47;;;;;;;12.78;8.48;;;;;;;9.28;73.43;100968.27;1699757;82;28029;-74
2021/06/01 03:20:15;;;;;;;14.13;9.20;;;;;;;9.29;73.41;100969.42;1703257;82;25752;-74
2021/06/01 03:22:42;;;;;;;10.80;8.38;;;;;;;9.33;73.48;100972.58;1659385;82;25681;-74
2021/06/01 03:25:11;;;;;;;10.63;7.78;;;;;;;9.36;73.53;100970.92;1656302;83;25833;-74
2021/06/01 03:27:38;;;;;;;13.93;8.43;;;;;;;9.35;73.60;100969.23;1684992;83;26028;-74
2021/06/01 03:30:08;;;;;;;17.32;9.20;;;;;;;9.31;73.61;100963.41;1702573;82;28111;-74
2021/06/01 03:32:35;;;;;;;12.65;8.90;;;;;;;9.28;73.29;100972.28;1655981;82;25746;-74
2021/06/01 03:35:02;;;;;;;13.13;9.65;;;;;;;9.31;73.38;100971.42;1691502;82;26180;-74
2021/06/01 03:37:29;;;;;;;13.80;8.18;;;;;;;9.37;73.68;100965.08;1701564;83;26368;-74
2021/06/01 03:39:56;;;;;;;12.78;8.68;;;;;;;9.37;73.36;100967.23;1691258;82;25606;-74
2021/06/01 03:42:23;;;;;;;13.93;8.70;;;;;;;9.41;73.61;100967.22;1659540;83;28504;-74
2021/06/01 03:44:51;;;;;;;11.68;7.83;;;;;;;9.46;73.53;100964.03;1657238;83;25769;-74
2021/06/01 03:47:18;;;;;;;11.28;8.63;;;;;;;9.48;73.72;100962.86;1689176;83;26413;-74
2021/06/01 03:49:45;;;;;;;10.00;7.53;;;;;;;9.50;73.66;100964.02;1672286;84;25870;-74
2021/06/01 03:52:12;;;;;;;10.90;7.70;;;;;;;9.54;73.87;100962.70;1663909;83;25824;-74
2021/06/01 03:54:40;;;;;;;13.00;8.20;;;;;;;9.58;74.11;100964.84;1719692;82;27429;-74
2021/06/01 03:57:11;;;;;;;11.70;8.58;;;;;;;9.62;73.86;100964.01;1690049;82;25638;-74
2021/06/01 03:59:39;;;;;;;23.40;12.15;;;;;;;9.68;74.02;100954.80;1716722;82;25695;-75
2021/06/01 04:02:09;;;;;;;14.63;10.13;;;;;;;9.76;74.05;100963.28;1667846;82;25776;-74
2021/06/01 04:04:36;;;;;;;12.93;9.55;;;;;;;9.83;74.68;100966.95;1625857;84;25715;-74
2021/06/01 04:07:04;;;;;;;12.58;8.73;;;;;;;9.84;74.47;100973.95;1693705;82;27539;-74
2021/06/01 04:09:31;;;;;;;17.80;10.95;;;;;;;9.87;74.47;100968.27;1714811;82;25708;-74
2021/06/01 04:11:58;;;;;;;14.30;10.72;;;;;;;9.89;74.18;100962.23;1677523;83;26465;-74
2021/06/01 04:14:25;;;;;;;17.48;10.88;;;;;;;9.95;74.14;100965.55;1659631;83;25741;-74
2021/06/01 04:16:56;;;;;;;16.07;11.10;;;;;;;10.00;74.08;100966.72;1661631;83;26491;-74
2021/06/01 04:19:23;;;;;;;15.70;11.05;;;;;;;10.05;74.08;100968.34;1703291;82;28343;-74
2021/06/01 04:21:52;;;;;;;14.28;10.15;;;;;;;10.11;74.36;100958.83;1665611;82;25839;-74
2021/06/01 04:24:21;;;;;;;16.95;10.80;;;;;;;10.17;74.39;100959.96;1689838;82;25906;-74
2021/06/01 04:26:48;;;;;;;19.52;12.43;;;;;;;10.21;74.36;100956.77;1655357;84;26706;-74
2021/06/01 04:29:15;;;;;;;19.12;12.50;;;;;;;10.27;74.42;100959.23;1693329;83;25835;-74
2021/06/01 04:31:42;;;;;;;18.87;12.30;;;;;;;10.33;74.42;100957.21;1655691;84;27951;-74
2021/06/01 04:34:09;;;;;;;20.25;12.78;;;;;;;10.37;74.42;100957.19;1648511;84;25738;-74
2021/06/01 04:36:36;;;;;;;21.15;14.83;;;;;;;10.43;74.66;100945.77;1670126;84;25302;-74
2021/06/01 04:39:03;;;;;;;26.65;15.38;;;;;;;10.52;74.58;100950.88;1685767;84;25800;-74
2021/06/01 04:41:30;;;;;;;26.48;15.50;;;;;;;10.61;74.46;100948.97;1626783;84;25673;-74
2021/06/01 04:43:57;;;;;;;25.00;15.32;;;;;;;10.70;74.38;100945.23;1642189;84;28089;-74
2021/06/01 04:46:25;;;;;;;32.80;17.42;;;;;;;10.78;74.48;100954.03;1646737;84;25754;-74
2021/06/01 04:48:52;;;;;;;25.57;17.65;;;;;;;10.88;74.71;100944.42;1684066;84;25440;-73
2021/06/01 04:51:19;;;;;;;27.02;17.52;;;;;;;10.96;74.25;100948.87;1661948;83;26895;-74
2021/06/01 04:53:56;;;;;;;27.80;17.87;;;;;;;11.03;74.53;100949.82;1642688;84;26463;-74
2021/06/01 04:56:24;;;;;;;28.05;18.77;;;;;;;11.11;74.21;100952.42;1655577;84;27596;-74
2021/06/01 04:58:52;;;;;;;26.00;17.23;;;;;;;11.19;74.35;100953.18;1683128;84;25732;-74
2021/06/01 05:01:19;;;;;;;27.25;18.10;;;;;;;11.24;74.58;100946.77;1635777;85;25701;-74
2021/06/01 05:03:46;;;;;;;27.50;19.60;;;;;;;11.31;74.48;100950.38;1640309;84;26328;-74
2021/06/01 05:06:13;;;;;;;32.60;20.30;;;;;;;11.37;74.49;100952.34;1673999;83;25643;-74
2021/06/01 05:08:40;;;;;;;31.85;19.60;;;;;;;11.42;74.24;100951.27;1685647;84;27105;-74
2021/06/01 05:11:07;;;;;;;25.60;19.07;;;;;;;11.48;74.15;100953.20;1591901;84;25793;-74
2021/06/01 05:13:34;;;;;;;32.17;19.80;;;;;;;11.56;74.02;100952.30;1659885;84;25691;-74
2021/06/01 05:16:01;;;;;;;29.63;19.95;;;;;;;11.63;74.01;100951.91;1677021;84;25794;-74
2021/06/01 05:18:28;;;;;;;28.77;19.20;;;;;;;11.69;73.98;100959.23;1654096;84;25876;-74
2021/06/01 05:20:55;;;;;;;27.45;18.07;;;;;;;11.74;74.05;100956.00;1613378;84;27429;-74
2021/06/01 05:23:22;;;;;;;26.57;17.65;;;;;;;11.78;74.02;100955.45;1642975;84;25670;-74
2021/06/01 05:25:49;;;;;;;22.90;17.07;;;;;;;11.85;73.95;100961.72;1666965;83;26602;-74
2021/06/01 05:28:16;;;;;;;26.23;17.57;;;;;;;11.90;74.44;100949.92;1703461;83;26387;-74
2021/06/01 05:31:02;;;;;;;26.23;17.60;;;;;;;11.97;74.71;100953.53;1660407;84;26140;-74
2021/06/01 05:33:30;;;;;;;25.97;18.90;;;;;;;12.05;74.31;100951.24;1649826;84;28641;-74
2021/06/01 05:35:56;;;;;;;30.62;19.27;;;;;;;12.11;74.05;100954.52;1688781;83;26032;-75
2021/06/01 05:38:25;;;;;;;26.57;18.20;;;;;;;12.17;74.02;100953.75;1643517;84;26064;-74
2021/06/01 05:40:54;;;;;;;23.35;18.37;;;;;;;12.21;73.74;100952.39;1704362;83;26532;-74
2021/06/01 05:43:22;;;;;;;27.75;19.65;;;;;;;12.27;73.77;100951.63;1639024;84;25673;-74
2021/06/01 05:45:50;;;;;;;27.65;19.42;;;;;;;12.35;74.04;100951.50;1693547;83;27593;-74
2021/06/01 05:48:18;;;;;;;32.05;19.25;;;;;;;12.43;73.91;100960.78;1656789;84;25696;-74
2021/06/01 05:50:45;;;;;;;31.77;19.70;;;;;;;12.50;73.70;100950.11;1662914;83;25750;-74
2021/06/01 05:53:12;;;;;;;26.33;19.73;;;;;;;12.57;73.26;100955.05;1650943;83;25770;-74
2021/06/01 05:55:39;;;;;;;29.65;19.35;;;;;;;12.65;73.04;100956.27;1688647;84;26454;-74
2021/06/01 05:58:06;;;;;;;31.68;19.87;;;;;;;12.71;73.00;100957.67;1668208;84;28305;-74
2021/06/01 06:00:34;;;;;;;22.85;15.98;;;;;;;12.75;73.01;100954.92;1651487;83;25363;-74
2021/06/01 06:03:04;;;;;;;21.45;15.60;;;;;;;12.83;73.14;100956.13;1641082;83;25648;-75
2021/06/01 06:05:31;;;;;;;19.92;14.15;;;;;;;12.87;73.18;100956.06;1682045;83;25756;-74
2021/06/01 06:08:14;;;;;;;26.23;15.30;;;;;;;12.94;73.14;100961.50;1671205;83;26561;-74
2021/06/01 06:10:44;;;;;;;24.27;13.95;;;;;;;12.97;72.87;100961.12;1660725;84;27411;-74
2021/06/01 06:13:12;;;;;;;19.50;13.48;;;;;;;13.02;72.65;100963.54;1672192;83;25841;-74
2021/06/01 06:15:40;;;;;;;21.95;14.63;;;;;;;13.06;72.66;100961.34;1690026;84;25833;-74
2021/06/01 06:18:33;;;;;;;22.48;14.23;;;;;;;13.11;72.54;100959.73;1680923;82;25830;-74
2021/06/01 06:21:01;;;;;;;21.37;13.30;;;;;;;13.17;72.39;100964.86;1654828;84;25414;-74
2021/06/01 06:23:31;;;;;;;22.95;14.70;;;;;;;13.22;72.54;100956.17;1660679;84;27317;-74
2021/06/01 06:26:00;;;;;;;23.77;14.87;;;;;;;13.25;72.09;100962.02;1695810;82;25729;-73
2021/06/01 06:28:30;;;;;;;23.00;14.23;;;;;;;13.29;72.13;100951.19;1680579;83;25312;-74
2021/06/01 06:30:57;;;;;;;22.32;13.83;;;;;;;13.35;71.69;100954.43;1674948;84;26444;-74
2021/06/01 06:33:24;;;;;;;19.92;13.45;;;;;;;13.38;71.50;100945.14;1651807;83;25711;-74
2021/06/01 06:35:51;;;;;;;23.98;12.88;;;;;;;13.40;71.62;100947.95;1701974;83;27545;-74
2021/06/01 06:38:18;;;;;;;19.82;13.18;;;;;;;13.46;71.76;100945.81;1677625;83;26401;-74
2021/06/01 06:40:59;;;;;;;19.32;13.32;;;;;;;13.53;71.65;100948.05;1656164;84;25678;-74
2021/06/01 06:43:15;;;;;;;20.30;13.22;;;;;;;13.59;71.58;100946.41;1682369;83;26635;-74
2021/06/01 06:45:42;;;;;;;18.00;12.35;;;;;;;13.65;71.57;100947.80;1724902;83;25701;-74
2021/06/01 06:48:10;;;;;;;23.27;13.25;;;;;;;13.73;71.76;100945.45;1657619;83;27393;-74
2021/06/01 06:50:37;;;;;;;22.73;12.68;;;;;;;13.79;71.13;100943.34;1701938;83;25691;-74
2021/06/01 06:53:06;;;;;;;18.75;13.58;;;;;;;13.86;71.04;100940.98;1672768;83;25846;-74
2021/06/01 06:55:34;;;;;;;15.93;11.75;;;;;;;13.96;70.72;100936.58;1704318;83;26499;-74
2021/06/01 06:58:01;;;;;;;17.30;11.68;;;;;;;14.06;70.46;100937.55;1689132;83;26302;-74
2021/06/01 07:00:29;;;;;;;17.77;11.03;;;;;;;14.18;70.07;100939.99;1664874;83;27394;-73
2021/06/01 07:02:57;;;;;;;19.30;12.50;;;;;;;14.30;69.84;100930.31;1658371;83;25643;-74
2021/06/01 07:05:24;;;;;;;19.17;11.97;;;;;;;14.42;70.61;100934.91;1703110;83;25807;-74
2021/06/01 07:07:53;;;;;;;20.25;12.75;;;;;;;14.58;70.21;100928.31;1678895;83;25864;-73
2021/06/01 07:10:22;;;;;;;18.00;11.45;;;;;;;14.76;70.32;100929.05;1657174;83;25795;-74
2021/06/01 07:12:49;;;;;;;17.75;12.05;;;;;;;14.89;70.41;100927.70;1688555;81;26903;-74
2021/06/01 07:15:29;;;;;;;16.90;11.15;;;;;;;15.00;70.33;100928.45;1657636;81;43397;-74
2021/06/01 07:18:00;;;;;;;19.65;10.13;;;;;;;15.10;69.68;100922.94;1704455;83;25627;-74
2021/06/01 07:20:33;;;;;;;18.37;9.30;;;;;;;15.21;69.34;100926.37;1678622;82;26591;-75
2021/06/01 07:22:58;;;;;;;19.10;9.80;;;;;;;15.30;68.49;100922.94;1648791;84;25701;-74
2021/06/01 07:25:25;;;;;;;17.23;9.98;;;;;;;15.38;68.42;100922.20;1711163;82;27471;-74
2021/06/01 07:27:52;;;;;;;22.75;11.60;;;;;;;15.48;68.27;100923.16;1727751;81;25660;-74
2021/06/01 07:30:20;;;;;;;19.32;11.90;;;;;;;15.59;68.44;100921.14;1663713;83;26133;-75
2021/06/01 07:32:47;;;;;;;15.75;11.18;;;;;;;15.69;68.11;100921.55;1675133;82;26844;-74
2021/06/01 07:35:16;;;;;;;20.62;12.03;;;;;;;15.81;68.12;100921.70;1711431;82;25546;-74
2021/06/01 07:37:43;;;;;;;16.27;10.98;;;;;;;15.92;67.85;100909.72;1713504;82;27417;-74
2021/06/01 07:40:11;;;;;;;18.80;10.95;;;;;;;16.03;67.25;100914.98;1684121;83;25698;-74
2021/06/01 07:42:38;;;;;;;19.52;10.28;;;;;;;16.13;66.78;100914.83;1657509;82;25309;-74
2021/06/01 07:45:06;;;;;;;18.23;9.93;;;;;;;16.19;66.43;100911.25;1710912;82;26471;-74
2021/06/01 07:47:33;;;;;;;17.95;9.28;;;;;;;16.26;66.12;100919.34;1709596;82;25773;-74
2021/06/01 07:50:01;;;;;;;12.50;8.73;;;;;;;16.30;65.85;100921.08;1669844;83;27564;-74
2021/06/01 07:52:28;;;;;;;14.58;9.80;;;;;;;16.38;65.68;100921.65;1710075;81;25873;-74
2021/06/01 07:54:56;;;;;;;15.32;9.43;;;;;;;16.46;64.94;100917.36;1719901;82;25686;-74
2021/06/01 07:57:24;;;;;;;11.22;8.95;;;;;;;16.54;65.12;100914.94;1714046;81;25988;-75
2021/06/01 07:59:51;;;;;;;16.67;9.98;;;;;;;16.64;65.12;100917.47;1662655;83;25806;-74
2021/06/01 08:02:18;;;;;;;13.70;9.13;;;;;;;16.74;64.93;100917.80;1683122;83;27533;-74
2021/06/01 08:04:45;;;;;;;16.60;9.88;;;;;;;16.82;64.69;100912.16;1713483;82;25828;-74
2021/06/01 08:07:13;;;;;;;13.83;10.58;;;;;;;16.91;64.66;100914.06;1732451;81;25633;-75
2021/06/01 08:09:40;;;;;;;14.68;9.80;;;;;;;17.04;64.03;100916.66;1655158;83;25887;-74
2021/06/01 08:12:09;;;;;;;12.90;8.98;;;;;;;17.14;64.11;100912.92;1671840;82;25710;-74
2021/06/01 08:14:36;;;;;;;10.10;8.03;;;;;;;17.25;63.51;100911.37;1722308;81;27463;-75
2021/06/01 08:17:04;;;;;;;13.13;7.97;;;;;;;17.37;62.57;100917.70;1717141;81;25636;-75
2021/06/01 08:19:34;;;;;;;18.80;9.18;;;;;;;17.51;63.06;100912.50;1672855;81;25853;-75
2021/06/01 08:24:37;;;;;;;14.58;8.00;;;;;;;17.83;62.57;100914.54;1707268;82;25609;-74
2021/06/01 08:27:05;;;;;;;11.75;6.03;;;;;;;17.94;61.82;100913.79;1680692;83;28189;-74
2021/06/01 08:29:32;;;;;;;14.33;8.08;;;;;;;18.00;61.41;100912.88;1683005;82;25781;-74
2021/06/01 08:32:00;;;;;;;9.75;6.92;;;;;;;18.04;60.95;100917.62;1662869;83;26496;-74
2021/06/01 08:34:27;;;;;;;13.75;7.67;;;;;;;18.08;60.09;100908.48;1707437;82;25941;-75
2021/06/01 08:36:54;;;;;;;11.22;6.58;;;;;;;18.07;59.71;100911.72;1707347;82;25802;-75
2021/06/01 08:39:26;;;;;;;10.70;6.60;;;;;;;18.13;60.04;100910.00;1654733;82;27485;-75
2021/06/01 08:41:51;;;;;;;12.03;6.17;;;;;;;18.22;59.68;100908.08;1688159;82;25329;-74
2021/06/01 08:44:18;;;;;;;12.03;6.85;;;;;;;18.32;59.39;100902.95;1704927;82;25690;-75
2021/06/01 08:46:49;;;;;;;11.22;6.15;;;;;;;18.42;59.43;100903.75;1710355;82;25873;-74
2021/06/01 08:49:16;;;;;;;16.25;7.58;;;;;;;18.48;58.89;100894.19;1674158;82;25531;-74
2021/06/01 08:51:44;;;;;;;9.53;5.17;;;;;;;18.54;58.77;100897.85;1678579;82;27529;-74
2021/06/01 08:54:11;;;;;;;8.43;4.97;;;;;;;18.63;57.90;100900.54;1712048;82;26414;-74
2021/06/01 08:56:38;;;;;;;7.00;4.90;;;;;;;18.71;57.29;100903.47;1707113;82;25653;-74
2021/06/01 08:59:05;;;;;;;11.40;5.65;;;;;;;18.78;56.13;100901.45;1687905;82;26102;-74
2021/06/01 09:01:33;;;;;;;10.75;5.53;;;;;;;18.81;56.45;100898.28;1710806;82;25761;-74
2021/06/01 09:04:06;;;;;;;14.95;5.15;;;;;;;18.84;55.99;100896.48;1690386;82;27476;-75
2021/06/01 09:06:38;;;;;;;7.87;5.00;;;;;;;18.89;56.12;100895.23;1676787;84;25993;-74
2021/06/01 09:12:05;;;;;;;7.65;3.77;;;;;;;19.07;56.14;100896.50;1711529;82;25870;-75
2021/06/01 09:14:59;;;;;;;8.35;3.92;;;;;;;19.11;53.03;100894.97;1688738;82;25865;-74
2021/06/01 09:22:55;;;;;;;9.95;5.05;;;;;;;19.26;52.03;100885.82;1692283;83;25675;-75
2021/06/01 09:28:03;;;;;;;8.80;5.10;;;;;;;19.47;53.71;100881.17;1643322;83;25775;-75
2021/06/01 09:30:44;;;;;;;10.85;5.33;;;;;;;19.64;53.59;100876.66;1692844;83;27505;-75
2021/06/01 09:33:20;;;;;;;;;;;;;;;19.78;52.55;100869.88;1707673;83;25743;-75
2021/06/01 09:35:55;;;;;;;9.30;4.90;;;;;;;19.91;52.85;100863.34;1659874;83;25697;-75
2021/06/01 09:38:29;;;;;;;10.75;4.12;;;;;;;19.99;52.77;100861.63;1673794;83;26488;-75
2021/06/01 09:41:15;;;;;;;11.88;4.53;;;;;;;20.03;51.90;100864.14;1670462;83;25782;-74
2021/06/01 09:44:04;;;;;;;8.33;4.03;;;;;;;20.10;52.31;100868.92;1720204;81;27394;-74
2021/06/01 09:46:47;;;;;;;9.73;4.00;;;;;;;20.23;50.86;100866.47;1671544;83;25674;-74
2021/06/01 09:49:19;;;;;;;8.58;4.50;;;;;;;20.33;49.90;100866.12;1691518;81;25718;-74
2021/06/01 09:52:08;;;;;;;5.90;3.75;;;;;;;20.34;48.96;100866.39;1709275;81;25805;-74
2021/06/01 09:54:42;;;;;;;6.58;3.42;;;;;;;20.36;49.43;100861.53;1702317;83;25830;-74
2021/06/01 09:57:27;;;;;;;9.68;3.15;;;;;;;20.45;49.22;100862.80;1668350;83;27396;-74
2021/06/01 10:00:17;;;;;;;9.25;2.72;;;;;;;20.54;48.44;100865.41;1674737;81;25322;-75
2021/06/01 10:02:54;;;;;;;5.28;2.65;;;;;;;20.66;48.89;100865.33;1696967;83;25627;-75
2021/06/01 10:05:26;;;;;;;7.85;3.40;;;;;;;20.80;48.15;100865.84;1714977;82;25843;-75
2021/06/01 10:07:56;;;;;;;7.87;3.55;;;;;;;20.88;47.53;100858.09;1723308;82;25746;-74
2021/06/01 10:10:31;;;;;;;5.08;3.12;;;;;;;20.94;47.64;100860.34;1682627;82;27975;-75
2021/06/01 10:13:08;;;;;;;7.83;3.42;;;;;;;20.98;47.69;100858.80;1691909;83;25815;-74
2021/06/01 10:15:38;;;;;;;7.33;3.55;;;;;;;21.06;47.93;100860.59;1719710;82;26437;-75
2021/06/01 10:18:08;;;;;;;5.80;3.85;;;;;;;21.14;47.25;100861.53;1649751;82;25777;-74
2021/06/01 10:20:38;;;;;;;10.65;3.08;;;;;;;21.11;46.31;100853.84;1677959;83;25712;-75
2021/06/01 10:23:07;;;;;;;7.17;3.30;;;;;;;21.15;46.87;100848.74;1675775;83;28572;-75
2021/06/01 10:25:35;;;;;;;4.28;2.83;;;;;;;21.17;45.87;100856.92;1726758;82;25774;-75
2021/06/01 10:28:05;;;;;;;3.77;2.45;;;;;;;21.18;45.06;100853.14;1678338;83;25760;-75
2021/06/01 10:30:36;;;;;;;3.72;2.02;;;;;;;21.21;44.25;100853.98;1681632;83;26103;-75
2021/06/01 10:33:08;;;;;;;3.20;1.90;;;;;;;21.20;44.59;100847.44;1702176;82;26464;-75
2021/06/01 10:35:40;;;;;;;4.35;2.05;;;;;;;21.16;41.75;100852.57;1730320;81;27507;-75
2021/06/01 10:52:28;;;;;;;5.53;2.20;;;;;;;21.55;41.53;100853.92;1679815;83;25660;-75
2021/06/01 10:54:58;;;;;;;5.05;2.15;;;;;;;21.65;42.91;100853.52;1712866;81;25253;-74
2021/06/01 10:57:52;;;;;;;5.75;2.92;;;;;;;21.82;43.51;100850.72;1704181;82;27084;-75
2021/06/01 11:03:08;;;;;;;4.47;2.00;;;;;;;21.99;42.68;100848.77;1682340;82;27502;-75
2021/06/01 11:06:00;;;;;;;3.98;2.05;;;;;;;21.97;42.36;100846.84;1683954;83;25807;-75
2021/06/01 11:08:44;;;;;;;4.22;2.05;;;;;;;21.93;41.02;100844.34;1638211;85;26469;-75
2021/06/01 11:11:32;;;;;;;4.97;2.15;;;;;;;21.79;41.54;100841.70;1641226;83;25802;-75
2021/06/01 11:14:29;;;;;;;6.90;2.50;;;;;;;21.79;41.42;100840.34;1665666;82;25738;-75
2021/06/01 11:16:59;;;;;;;3.35;1.80;;;;;;;21.79;41.21;100836.25;1691780;82;27479;-74
2021/06/01 11:19:55;;;;;;;9.37;2.53;;;;;;;21.73;40.50;100842.70;1703870;82;25869;-75
2021/06/01 11:22:24;;;;;;;5.45;2.40;;;;;;;21.66;40.22;100847.53;1700506;81;25693;-74
2021/06/01 11:33:15;;;;;;;3.80;2.12;;;;;;;21.73;40.54;100832.63;1620544;84;25767;-75
2021/06/01 11:35:43;;;;;;;6.30;2.27;;;;;;;21.81;40.77;100839.55;1655033;84;25586;-75
2021/06/01 11:38:22;;;;;;;2.35;2.00;;;;;;;21.88;40.66;100839.66;1687179;83;25802;-74
2021/06/01 11:43:41;;;;;;;6.37;2.37;;;;;;;21.97;40.73;100838.66;1654564;83;27197;-75
2021/06/01 11:46:14;;;;;;;5.37;1.77;;;;;;;22.03;40.28;100837.10;1661648;83;25771;-75
2021/06/01 11:51:19;;;;;;;4.65;2.20;;;;;;;21.96;38.61;100836.47;1708439;83;25792;-74
2021/06/01 11:53:50;;;;;;;4.12;2.02;;;;;;;21.91;39.76;100838.33;1659521;84;25617;-74
2021/06/01 12:02:51;;;;;;;4.83;1.95;;;;;;;21.97;39.70;100839.50;1687898;84;25679;-75
2021/06/01 12:19:05;;;;;;;7.62;2.30;;;;;;;22.02;40.49;100830.02;1715807;83;25989;-75
2021/06/01 12:21:43;;;;;;;6.60;3.12;;;;;;;22.16;40.61;100831.78;1705689;82;25842;-75
2021/06/01 12:24:17;;;;;;;3.95;2.00;;;;;;;22.28;40.02;100822.92;1695842;84;27561;-75
2021/06/01 12:32:24;;;;;;;3.80;2.02;;;;;;;22.82;40.19;100825.86;1700984;83;26505;-75
2021/06/01 12:46:39;;;;;;;3.50;2.05;;;;;;;22.95;38.30;100817.22;1713720;83;25830;-75
2021/06/01 13:12:50;;;;;;;4.40;2.33;;;;;;;22.87;37.93;100817.72;1643325;83;25742;-75
2021/06/01 13:37:09;;;;;;;5.20;2.65;;;;;;;23.31;36.49;100806.53;1707565;82;26414;-75
2021/06/01 13:40:06;;;;;;;4.90;2.27;;;;;;;23.30;36.31;100809.80;1727189;81;25796;-75
2021/06/01 13:50:49;;;;;;;4.42;2.42;;;;;;;24.08;36.14;100802.50;1724109;81;25499;-75
2021/06/01 13:55:47;;;;;;;4.45;1.87;;;;;;;24.24;36.27;100794.58;1674712;82;26275;-75
2021/06/01 14:39:29;;;;;;;4.15;1.80;;;;;;;24.99;35.50;100815.70;1674624;82;25703;-75
2021/06/01 14:56:47;;;;;;;7.35;2.33;;;;;;;23.73;35.93;100821.80;1703008;82;27449;-75